createdAt,value
2018-11-06T00:00:16.650Z,20.05
2018-11-06T00:02:46.324Z,19.25
2018-11-06T00:05:16.009Z,19.50
2018-11-06T00:07:45.128Z,19.20
2018-11-06T00:10:13.413Z,18.30
2018-11-06T00:12:41.947Z,18.75
2018-11-06T00:15:10.630Z,19.02
2018-11-06T00:17:39.312Z,18.55
2018-11-06T00:20:09.732Z,19.23
2018-11-06T00:22:38.308Z,18.40
2018-11-06T00:25:07.328Z,19.23
2018-11-06T00:27:35.650Z,18.95
2018-11-06T00:30:04.276Z,20.05
2018-11-06T00:32:32.560Z,20.27
2018-11-06T00:35:00.850Z,18.73
2018-11-06T00:37:29.229Z,22.40
2018-11-06T00:39:57.737Z,21.20
2018-11-06T00:42:26.113Z,20.35
2018-11-06T00:44:54.409Z,20.12
2018-11-06T00:47:22.684Z,20.72
2018-11-06T00:49:51.202Z,18.15
2018-11-06T00:52:19.619Z,19.90
2018-11-06T00:54:48.031Z,20.10
2018-11-06T00:57:16.353Z,18.52
2018-11-06T00:59:44.641Z,19.52
2018-11-06T01:02:13.120Z,19.80
2018-11-06T01:04:41.411Z,19.87
2018-11-06T01:07:09.699Z,17.82
2018-11-06T01:09:37.945Z,19.13
2018-11-06T01:12:06.291Z,19.67
2018-11-06T01:14:36.264Z,19.85
2018-11-06T01:17:04.547Z,20.00
2018-11-06T01:19:32.846Z,19.70
2018-11-06T01:22:01.108Z,18.35
2018-11-06T01:24:29.412Z,18.77
2018-11-06T01:26:57.722Z,18.23
2018-11-06T01:29:26.022Z,17.42
2018-11-06T01:31:54.326Z,17.70
2018-11-06T01:34:22.680Z,18.00
2018-11-06T01:36:50.983Z,17.90
2018-11-06T01:39:19.242Z,18.12
2018-11-06T01:41:47.516Z,17.87
2018-11-06T01:44:17.363Z,17.32
2018-11-06T01:46:46.329Z,17.60
2018-11-06T01:49:14.631Z,16.87
2018-11-06T01:51:42.927Z,18.20
2018-11-06T01:54:11.212Z,17.70
2018-11-06T01:56:39.524Z,18.15
2018-11-06T01:59:07.965Z,17.45
2018-11-06T02:01:36.240Z,17.67
2018-11-06T02:04:04.530Z,19.87
2018-11-06T02:06:32.799Z,17.17
2018-11-06T02:09:01.098Z,17.50
2018-11-06T02:11:29.802Z,17.92
2018-11-06T02:13:58.074Z,17.10
2018-11-06T02:16:26.352Z,18.48
2018-11-06T02:18:54.647Z,16.63
2018-11-06T02:21:22.932Z,16.67
2018-11-06T02:23:51.211Z,17.20
2018-11-06T02:26:19.490Z,18.20
2018-11-06T02:28:47.779Z,16.77
2018-11-06T02:31:16.072Z,16.45
2018-11-06T02:33:44.344Z,15.23
2018-11-06T02:36:12.647Z,14.83
2018-11-06T02:38:40.932Z,15.60
2018-11-06T02:41:09.207Z,14.80
2018-11-06T02:43:37.517Z,14.58
2018-11-06T02:46:06.221Z,13.40
2018-11-06T02:48:34.503Z,13.97
2018-11-06T02:51:02.788Z,13.60
2018-11-06T02:53:31.056Z,15.75
2018-11-06T02:55:59.477Z,17.70
2018-11-06T02:58:27.647Z,13.98
2018-11-06T03:00:55.949Z,13.80
2018-11-06T03:03:24.364Z,15.95
2018-11-06T03:05:52.666Z,17.40
2018-11-06T03:08:20.955Z,16.50
2018-11-06T03:10:49.230Z,16.50
2018-11-06T03:13:17.509Z,15.70
2018-11-06T03:15:45.799Z,17.90
2018-11-06T03:18:14.067Z,14.70
2018-11-06T03:20:42.355Z,15.65
2018-11-06T03:23:10.629Z,16.53
2018-11-06T03:25:38.919Z,16.57
2018-11-06T03:28:07.192Z,17.85
2018-11-06T03:30:35.472Z,16.45
2018-11-06T03:33:03.837Z,16.52
2018-11-06T03:35:32.113Z,15.58
2018-11-06T03:38:00.417Z,15.90
2018-11-06T03:40:28.670Z,15.47
2018-11-06T03:42:56.967Z,15.83
2018-11-06T03:45:25.235Z,17.20
2018-11-06T03:47:53.551Z,16.52
2018-11-06T03:50:21.834Z,16.40
2018-11-06T03:52:50.107Z,18.00
2018-11-06T03:55:18.364Z,18.27
2018-11-06T03:57:46.649Z,17.70
2018-11-06T04:00:15.538Z,17.20
2018-11-06T04:02:44.436Z,19.30
2018-11-06T04:05:13.102Z,17.95
2018-11-06T04:07:41.380Z,18.60
2018-11-06T04:10:10.800Z,17.70
2018-11-06T04:12:39.787Z,18.37
2018-11-06T04:15:08.559Z,18.75
2018-11-06T04:17:36.874Z,17.48
2018-11-06T04:20:05.793Z,17.60
2018-11-06T04:22:34.045Z,18.13
2018-11-06T04:25:02.327Z,18.32
2018-11-06T04:27:30.663Z,18.40
2018-11-06T04:29:58.955Z,18.65
2018-11-06T04:32:27.247Z,19.23
2018-11-06T04:34:55.655Z,17.75
2018-11-06T04:37:23.919Z,17.65
2018-11-06T04:39:52.163Z,17.37
2018-11-06T04:42:20.466Z,16.60
2018-11-06T04:44:48.723Z,17.75
2018-11-06T04:47:17.019Z,17.00
2018-11-06T04:49:45.312Z,17.57
2018-11-06T04:52:13.588Z,18.57
2018-11-06T04:54:41.886Z,19.40
2018-11-06T04:57:10.191Z,19.00
2018-11-06T04:59:38.483Z,18.57
2018-11-06T05:02:06.786Z,16.70
2018-11-06T05:04:35.083Z,16.42
2018-11-06T05:07:03.551Z,17.42
2018-11-06T05:09:31.805Z,17.15
2018-11-06T05:12:00.066Z,16.83
2018-11-06T05:14:28.363Z,16.67
2018-11-06T05:16:56.669Z,16.87
2018-11-06T05:19:24.936Z,19.35
2018-11-06T05:21:53.231Z,18.00
2018-11-06T05:24:21.526Z,18.87
2018-11-06T05:26:49.797Z,20.05
2018-11-06T05:29:18.077Z,19.97
2018-11-06T05:31:46.360Z,20.30
2018-11-06T05:34:14.628Z,20.80
2018-11-06T05:36:42.924Z,20.43
2018-11-06T05:39:12.260Z,26.95
2018-11-06T05:41:40.442Z,24.75
2018-11-06T05:44:08.828Z,19.20
2018-11-06T05:46:37.010Z,19.23
2018-11-06T05:49:05.377Z,18.42
2018-11-06T05:51:33.672Z,19.30
2018-11-06T05:54:01.947Z,20.80
2018-11-06T05:56:30.203Z,22.05
2018-11-06T05:58:58.508Z,26.60
2018-11-06T06:01:26.791Z,27.42
2018-11-06T06:03:55.123Z,27.10
2018-11-06T06:06:23.416Z,25.80
2018-11-06T06:08:51.712Z,21.80
2018-11-06T06:11:19.999Z,21.48
2018-11-06T06:13:48.260Z,20.55
2018-11-06T06:16:16.538Z,22.20
2018-11-06T06:18:44.807Z,21.50
2018-11-06T06:21:13.201Z,19.17
2018-11-06T06:23:41.508Z,19.32
2018-11-06T06:26:09.775Z,20.43
2018-11-06T06:28:38.133Z,21.17
2018-11-06T06:31:06.415Z,19.17
2018-11-06T06:33:34.712Z,20.40
2018-11-06T06:36:02.991Z,18.60
2018-11-06T06:38:31.268Z,19.05
2018-11-06T06:40:59.613Z,20.05
2018-11-06T06:43:27.807Z,19.73
2018-11-06T06:45:56.131Z,19.95
2018-11-06T06:48:24.421Z,19.12
2018-11-06T06:50:52.738Z,20.08
2018-11-06T06:53:21.012Z,18.70
2018-11-06T06:55:49.358Z,18.00
2018-11-06T06:58:17.679Z,17.85
2018-11-06T07:00:45.960Z,19.73
2018-11-06T07:03:14.265Z,22.60
2018-11-06T07:05:42.559Z,19.77
2018-11-06T07:08:10.837Z,19.77
2018-11-06T07:10:39.121Z,18.30
2018-11-06T07:13:07.529Z,18.33
2018-11-06T07:15:35.757Z,18.07
2018-11-06T07:18:04.041Z,17.42
2018-11-06T07:20:32.347Z,18.10
2018-11-06T07:23:00.644Z,17.35
2018-11-06T07:25:28.962Z,17.73
2018-11-06T07:27:57.255Z,19.10
2018-11-06T07:30:25.542Z,18.87
2018-11-06T07:32:53.799Z,17.73
2018-11-06T07:35:22.517Z,17.20
2018-11-06T07:37:50.735Z,17.52
2018-11-06T07:40:20.150Z,18.70
2018-11-06T07:42:48.402Z,18.03
2018-11-06T07:45:20.031Z,17.85
2018-11-06T07:47:48.322Z,17.20
2018-11-06T07:50:16.658Z,16.70
2018-11-06T07:52:45.194Z,16.53
2018-11-06T07:55:14.805Z,20.17
2018-11-06T07:57:43.080Z,21.02
2018-11-06T08:00:17.421Z,20.70
2018-11-06T08:02:46.711Z,19.02
2018-11-06T08:05:15.482Z,21.17
2018-11-06T08:07:44.591Z,18.20
2018-11-06T08:10:12.872Z,18.12
2018-11-06T08:12:42.977Z,17.17
2018-11-06T08:15:11.916Z,17.65
2018-11-06T08:17:40.876Z,17.75
2018-11-06T08:20:09.180Z,16.70
2018-11-06T08:22:37.935Z,16.60
2018-11-06T08:25:07.032Z,16.90
2018-11-06T08:27:35.367Z,16.53
2018-11-06T08:30:03.807Z,16.20
2018-11-06T08:32:32.531Z,16.87
2018-11-06T08:35:00.404Z,16.30
2018-11-06T08:37:28.697Z,16.23
2018-11-06T08:39:57.042Z,15.35
2018-11-06T08:42:25.305Z,15.65
2018-11-06T08:44:53.639Z,15.77
2018-11-06T08:47:21.956Z,15.13
2018-11-06T08:49:50.248Z,15.38
2018-11-06T08:52:18.564Z,15.85
2018-11-06T08:54:46.943Z,15.83
2018-11-06T08:57:15.221Z,15.65
2018-11-06T08:59:43.668Z,16.25
2018-11-06T09:02:12.089Z,16.45
2018-11-06T09:04:40.435Z,15.73
2018-11-06T09:07:08.855Z,15.80
2018-11-06T09:09:37.139Z,15.75
2018-11-06T09:12:05.690Z,16.87
2018-11-06T09:14:33.959Z,15.83
2018-11-06T09:17:02.294Z,17.23
2018-11-06T09:19:30.574Z,16.83
2018-11-06T09:21:58.888Z,17.62
2018-11-06T09:24:27.184Z,15.63
2018-11-06T09:26:55.618Z,15.90
2018-11-06T09:29:23.939Z,16.25
2018-11-06T09:31:52.284Z,15.65
2018-11-06T09:34:20.591Z,16.02
2018-11-06T09:36:48.873Z,15.75
2018-11-06T09:39:17.176Z,15.43
2018-11-06T09:41:45.449Z,15.32
2018-11-06T09:44:13.780Z,15.40
2018-11-06T09:46:42.068Z,14.60
2018-11-06T09:49:10.331Z,15.00
2018-11-06T09:51:38.800Z,14.53
2018-11-06T09:54:07.089Z,15.03
2018-11-06T09:56:35.424Z,13.93
2018-11-06T09:59:03.774Z,13.55
2018-11-06T10:01:32.053Z,14.90
2018-11-06T10:04:00.344Z,15.18
2018-11-06T10:06:28.777Z,14.50
2018-11-06T10:08:56.974Z,15.23
2018-11-06T10:11:25.520Z,15.50
2018-11-06T10:13:53.788Z,14.70
2018-11-06T10:16:22.073Z,16.00
2018-11-06T10:18:50.346Z,16.27
2018-11-06T10:21:18.671Z,16.97
2018-11-06T10:23:47.025Z,18.10
2018-11-06T10:26:15.322Z,16.75
2018-11-06T10:28:43.618Z,15.48
2018-11-06T10:31:11.891Z,16.25
2018-11-06T10:33:40.193Z,15.80
2018-11-06T10:36:08.503Z,15.03
2018-11-06T10:38:36.844Z,16.10
2018-11-06T10:41:06.077Z,14.58
2018-11-06T10:43:34.354Z,14.40
2018-11-06T10:46:02.619Z,13.60
2018-11-06T10:48:30.902Z,12.37
2018-11-06T10:50:59.215Z,13.13
2018-11-06T10:53:27.497Z,12.00
2018-11-06T10:55:55.822Z,11.83
2018-11-06T10:58:24.156Z,11.93
2018-11-06T11:00:57.832Z,11.23
2018-11-06T11:03:28.487Z,11.68
2018-11-06T11:05:56.919Z,11.60
2018-11-06T11:08:25.215Z,11.70
2018-11-06T11:10:53.529Z,11.40
2018-11-06T11:13:21.864Z,11.40
2018-11-06T11:15:50.119Z,12.40
2018-11-06T11:18:18.407Z,10.50
2018-11-06T11:20:46.693Z,10.10
2018-11-06T11:23:14.963Z,10.15
2018-11-06T11:25:43.250Z,10.20
2018-11-06T11:28:11.572Z,9.95
2018-11-06T11:30:39.856Z,9.95
2018-11-06T11:33:08.140Z,9.68
2018-11-06T11:35:36.452Z,10.23
2018-11-06T11:38:04.738Z,10.10
2018-11-06T11:40:33.108Z,10.43
2018-11-06T11:43:01.539Z,10.60
2018-11-06T11:45:29.816Z,10.00
2018-11-06T11:47:58.107Z,10.60
2018-11-06T11:50:26.400Z,10.20
2018-11-06T11:52:54.707Z,10.50
2018-11-06T11:55:22.995Z,10.00
2018-11-06T11:57:51.406Z,9.40
2018-11-06T12:00:20.804Z,9.80
2018-11-06T12:02:49.249Z,9.20
2018-11-06T12:05:17.534Z,9.55
2018-11-06T12:07:45.849Z,10.18
2018-11-06T12:10:14.314Z,9.45
2018-11-06T12:12:42.607Z,9.70
2018-11-06T12:15:13.337Z,9.80
2018-11-06T12:17:42.438Z,9.87
2018-11-06T12:20:11.377Z,9.68
2018-11-06T12:22:40.191Z,9.30
2018-11-06T12:25:08.909Z,9.23
2018-11-06T12:27:37.362Z,9.10
2018-11-06T12:30:07.633Z,9.30
2018-11-06T12:32:35.989Z,9.33
2018-11-06T12:35:04.289Z,8.43
2018-11-06T12:37:32.537Z,7.80
2018-11-06T12:40:01.414Z,7.53
2018-11-06T12:42:29.710Z,8.60
2018-11-06T12:44:58.381Z,8.25
2018-11-06T12:47:26.696Z,8.23
2018-11-06T12:49:55.211Z,8.03
2018-11-06T12:52:24.460Z,7.90
2018-11-06T12:54:52.914Z,7.80
2018-11-06T12:57:21.267Z,7.17
2018-11-06T12:59:49.624Z,7.60
2018-11-06T13:02:17.910Z,7.60
2018-11-06T13:04:46.267Z,7.33
2018-11-06T13:07:14.556Z,7.50
2018-11-06T13:09:42.915Z,7.60
2018-11-06T13:12:11.199Z,7.40
2018-11-06T13:14:39.488Z,9.90
2018-11-06T13:17:08.486Z,7.12
2018-11-06T13:19:37.191Z,7.20
2018-11-06T13:22:06.616Z,6.67
2018-11-06T13:24:34.883Z,6.85
2018-11-06T13:27:03.193Z,7.45
2018-11-06T13:29:31.600Z,7.08
2018-11-06T13:31:59.878Z,6.63
2018-11-06T13:34:28.163Z,7.15
2018-11-06T13:36:56.496Z,7.03
2018-11-06T13:39:24.791Z,7.12
2018-11-06T13:41:53.139Z,7.00
2018-11-06T13:44:22.075Z,7.10
2018-11-06T13:46:50.125Z,7.15
2018-11-06T13:49:18.472Z,6.60
2018-11-06T13:51:46.787Z,7.20
2018-11-06T13:54:15.074Z,7.45
2018-11-06T13:56:43.366Z,7.15
2018-11-06T13:59:11.834Z,7.22
2018-11-06T14:01:40.139Z,8.28
2018-11-06T14:04:08.490Z,7.80
2018-11-06T14:06:36.859Z,8.10
2018-11-06T14:09:06.947Z,7.60
2018-11-06T14:11:35.283Z,8.73
2018-11-06T14:14:03.551Z,8.18
2018-11-06T14:16:31.866Z,8.33
2018-11-06T14:19:00.150Z,8.20
2018-11-06T14:21:28.474Z,8.20
2018-11-06T14:23:56.749Z,8.45
2018-11-06T14:26:25.103Z,8.50
2018-11-06T14:28:53.574Z,8.45
2018-11-06T14:31:21.864Z,7.90
2018-11-06T14:33:50.158Z,8.90
2018-11-06T14:36:18.458Z,9.50
2018-11-06T14:38:46.710Z,9.20
2018-11-06T14:41:15.009Z,9.40
2018-11-06T14:43:43.313Z,8.28
2018-11-06T14:46:11.636Z,9.45
2018-11-06T14:48:40.019Z,9.30
2018-11-06T14:51:08.185Z,9.63
2018-11-06T14:53:36.504Z,10.10
2018-11-06T14:56:04.888Z,10.10
2018-11-06T14:58:33.090Z,9.60
2018-11-06T15:01:01.396Z,9.90
2018-11-06T15:03:29.661Z,9.83
2018-11-06T15:05:57.988Z,10.17
2018-11-06T15:08:26.280Z,10.63
2018-11-06T15:10:54.599Z,9.83
2018-11-06T15:13:23.548Z,9.90
2018-11-06T15:15:51.828Z,10.80
2018-11-06T15:18:20.202Z,10.05
2018-11-06T15:20:48.534Z,11.28
2018-11-06T15:23:16.802Z,11.20
2018-11-06T15:25:45.090Z,12.70
2018-11-06T15:28:13.379Z,11.88
2018-11-06T15:30:41.670Z,13.30
2018-11-06T15:33:09.983Z,12.93
2018-11-06T15:35:38.346Z,14.20
2018-11-06T15:38:06.636Z,13.20
2018-11-06T15:40:35.032Z,14.00
2018-11-06T15:43:03.348Z,12.90
2018-11-06T15:45:31.672Z,12.80
2018-11-06T15:47:59.967Z,12.63
2018-11-06T15:50:28.249Z,12.80
2018-11-06T15:52:56.559Z,13.07
2018-11-06T15:55:24.831Z,13.00
2018-11-06T15:57:53.164Z,14.20
2018-11-06T16:00:22.939Z,12.63
2018-11-06T16:02:51.400Z,13.20
2018-11-06T16:05:20.059Z,13.85
2018-11-06T16:07:49.164Z,13.50
2018-11-06T16:10:20.853Z,12.83
2018-11-06T16:12:49.185Z,13.13
2018-11-06T16:15:17.567Z,14.53
2018-11-06T16:17:45.866Z,15.58
2018-11-06T16:20:15.678Z,15.78
2018-11-06T16:22:44.270Z,17.70
2018-11-06T16:25:14.089Z,17.98
2018-11-06T16:27:42.807Z,17.17
2018-11-06T16:30:14.432Z,17.82
2018-11-06T16:32:42.872Z,16.97
2018-11-06T16:35:12.699Z,18.10
2018-11-06T16:37:41.330Z,17.50
2018-11-06T16:40:10.178Z,18.07
2018-11-06T16:42:38.784Z,17.40
2018-11-06T16:45:08.669Z,16.80
2018-11-06T16:47:37.067Z,16.40
2018-11-06T16:50:05.983Z,15.70
2018-11-06T16:52:34.340Z,17.32
2018-11-06T16:55:02.657Z,17.20
2018-11-06T16:57:30.968Z,17.83
2018-11-06T16:59:59.875Z,16.93
2018-11-06T17:02:28.216Z,14.90
2018-11-06T17:04:56.504Z,16.00
2018-11-06T17:07:24.791Z,17.73
2018-11-06T17:09:53.063Z,18.80
2018-11-06T17:12:21.360Z,17.33
2018-11-06T17:14:49.619Z,17.55
2018-11-06T17:17:17.989Z,15.90
2018-11-06T17:19:46.187Z,15.40
2018-11-06T17:22:14.467Z,15.10
2018-11-06T17:24:42.779Z,15.23
2018-11-06T17:27:11.149Z,16.27
2018-11-06T17:29:39.458Z,16.32
2018-11-06T17:32:07.763Z,16.23
2018-11-06T17:34:36.062Z,16.15
2018-11-06T17:37:04.719Z,14.63
2018-11-06T17:39:33.068Z,15.60
2018-11-06T17:42:01.346Z,15.20
2018-11-06T17:44:29.886Z,14.70
2018-11-06T17:46:58.241Z,14.03
2018-11-06T17:49:26.531Z,12.90
2018-11-06T17:51:54.791Z,14.33
2018-11-06T17:54:23.054Z,14.15
2018-11-06T17:56:51.410Z,15.72
2018-11-06T17:59:19.686Z,14.97
2018-11-06T18:01:47.928Z,14.50
2018-11-06T18:04:16.365Z,14.20
2018-11-06T18:06:44.540Z,14.53
2018-11-06T18:09:13.550Z,18.60
2018-11-06T18:11:41.868Z,17.10
2018-11-06T18:14:10.120Z,16.23
2018-11-06T18:16:38.376Z,15.87
2018-11-06T18:19:06.656Z,16.47
2018-11-06T18:21:35.009Z,14.60
2018-11-06T18:24:03.335Z,16.67
2018-11-06T18:26:31.610Z,17.55
2018-11-06T18:28:59.887Z,16.30
2018-11-06T18:31:28.233Z,16.27
2018-11-06T18:33:56.568Z,16.60
2018-11-06T18:36:24.858Z,16.70
2018-11-06T18:38:53.122Z,16.65
2018-11-06T18:41:21.472Z,16.37
2018-11-06T18:43:49.830Z,15.50
2018-11-06T18:46:18.335Z,15.85
2018-11-06T18:48:46.620Z,16.75
2018-11-06T18:51:14.995Z,16.57
2018-11-06T18:53:43.319Z,16.70
2018-11-06T18:56:11.629Z,16.62
2018-11-06T18:58:39.908Z,16.00
2018-11-06T19:01:08.211Z,15.60
2018-11-06T19:03:36.484Z,16.83
2018-11-06T19:06:05.949Z,22.85
2018-11-06T19:08:34.227Z,23.38
2018-11-06T19:11:02.503Z,23.55
2018-11-06T19:13:30.815Z,25.12
2018-11-06T19:15:59.111Z,24.50
2018-11-06T19:18:27.415Z,23.25
2018-11-06T19:20:55.747Z,23.00
2018-11-06T19:23:24.071Z,23.62
2018-11-06T19:25:52.379Z,25.50
2018-11-06T19:28:20.670Z,27.80
2018-11-06T19:30:48.976Z,27.57
2018-11-06T19:33:17.218Z,25.93
2018-11-06T19:35:45.508Z,24.53
2018-11-06T19:38:13.801Z,24.63
2018-11-06T19:40:42.211Z,24.45
2018-11-06T19:43:10.389Z,22.52
2018-11-06T19:45:38.767Z,23.98
2018-11-06T19:48:07.123Z,22.37
2018-11-06T19:50:35.407Z,22.82
2018-11-06T19:53:03.742Z,22.90
2018-11-06T19:55:32.053Z,24.57
2018-11-06T19:58:00.421Z,26.07
2018-11-06T20:00:28.823Z,25.12
2018-11-06T20:02:57.214Z,23.73
2018-11-06T20:05:25.625Z,25.52
2018-11-06T20:07:53.900Z,24.52
2018-11-06T20:10:23.597Z,24.20
2018-11-06T20:12:52.937Z,24.72
2018-11-06T20:15:21.320Z,24.72
2018-11-06T20:17:49.636Z,23.95
2018-11-06T20:20:26.159Z,25.83
2018-11-06T20:22:54.477Z,24.80
2018-11-06T20:25:22.815Z,24.20
2018-11-06T20:27:51.163Z,24.40
2018-11-06T20:30:20.872Z,24.30
2018-11-06T20:32:49.200Z,23.52
2018-11-06T20:35:17.839Z,22.70
2018-11-06T20:37:46.144Z,23.22
2018-11-06T20:40:18.404Z,22.42
2018-11-06T20:42:47.088Z,22.70
2018-11-06T20:45:16.385Z,20.32
2018-11-06T20:47:44.977Z,21.12
2018-11-06T20:50:16.682Z,20.10
2018-11-06T20:52:45.091Z,19.80
2018-11-06T20:55:14.394Z,19.98
2018-11-06T20:57:42.688Z,19.90
2018-11-06T21:00:18.493Z,17.20
2018-11-06T21:02:47.160Z,16.17
2018-11-06T21:05:16.289Z,16.77
2018-11-06T21:07:45.405Z,16.30
2018-11-06T21:10:14.371Z,16.27
2018-11-06T21:12:42.772Z,16.15
2018-11-06T21:15:11.746Z,16.20
2018-11-06T21:17:40.198Z,14.00
2018-11-06T21:20:10.047Z,13.55
2018-11-06T21:22:38.466Z,13.48
2018-11-06T21:25:07.522Z,13.20
2018-11-06T21:27:35.735Z,13.68
2018-11-06T21:30:04.155Z,12.75
2018-11-06T21:32:32.451Z,13.37
2018-11-06T21:35:00.745Z,12.63
2018-11-06T21:37:29.013Z,12.78
2018-11-06T21:39:57.283Z,14.23
2018-11-06T21:42:25.552Z,12.90
2018-11-06T21:44:53.870Z,14.18
2018-11-06T21:47:22.144Z,13.40
2018-11-06T21:49:50.427Z,14.80
2018-11-06T21:52:18.823Z,14.38
2018-11-06T21:54:47.348Z,15.00
2018-11-06T21:57:15.600Z,15.20
2018-11-06T21:59:43.926Z,15.20
2018-11-06T22:02:12.214Z,15.38
2018-11-06T22:04:40.509Z,15.68
2018-11-06T22:07:08.779Z,14.75
2018-11-06T22:09:37.050Z,14.55
2018-11-06T22:12:05.711Z,14.77
2018-11-06T22:15:36.991Z,14.60
2018-11-06T22:18:05.280Z,16.67
2018-11-06T22:20:33.609Z,15.50
2018-11-06T22:23:01.916Z,14.53
2018-11-06T22:25:30.220Z,14.47
2018-11-06T22:27:58.520Z,16.17
2018-11-06T22:30:26.810Z,15.80
2018-11-06T22:32:55.109Z,16.50
2018-11-06T22:35:23.404Z,17.67
2018-11-06T22:37:51.768Z,18.65
2018-11-06T22:40:20.051Z,17.40
2018-11-06T22:42:48.327Z,17.80
2018-11-06T22:45:17.489Z,17.20
2018-11-06T22:47:45.748Z,17.57
2018-11-06T22:50:16.079Z,16.83
2018-11-06T22:52:44.870Z,16.17
2018-11-06T22:55:13.256Z,17.30
2018-11-06T22:57:41.617Z,17.97
2018-11-06T23:00:12.422Z,17.80
2018-11-06T23:02:41.047Z,16.07
2018-11-06T23:05:09.389Z,15.28
2018-11-06T23:07:42.854Z,15.30
2018-11-06T23:10:11.512Z,14.00
2018-11-06T23:12:39.955Z,13.40
2018-11-06T23:15:08.283Z,12.80
2018-11-06T23:17:36.575Z,13.32
2018-11-06T23:20:05.755Z,13.10
2018-11-06T23:22:34.207Z,13.37
2018-11-06T23:25:02.608Z,12.63
2018-11-06T23:27:30.791Z,13.53
2018-11-06T23:29:59.094Z,12.90
2018-11-06T23:32:27.437Z,13.43
2018-11-06T23:34:55.813Z,12.05
2018-11-06T23:37:24.115Z,12.77
2018-11-06T23:39:52.400Z,13.55
2018-11-06T23:42:20.687Z,12.90
2018-11-06T23:44:48.975Z,11.57
2018-11-06T23:47:17.290Z,12.73
2018-11-06T23:49:45.581Z,12.60
2018-11-06T23:52:13.879Z,11.95
2018-11-06T23:54:42.170Z,11.97
2018-11-06T23:57:10.447Z,11.00
2018-11-06T23:59:38.724Z,11.60
